Time;durP1;ratioP1;P1;durP2;ratioP2;P2;SDS_P1;SDS_P2;PMS_P1;PMS_P2;Temp;Humidity;BMP_temperature;BMP_pressure;BME280_temperature;BME280_humidity;BME280_pressure;Samples;Min_cycle;Max_cycle;Signal;HPM_P1;HPM_P2
2021/10/24 00:01:38;;;;;;;0.00;0.00;;;;;;;6.72;51.11;99692.65;115584;1217;23128;-84
2021/10/24 00:04:04;;;;;;;0.10;0.10;;;;;;;6.68;50.95;99692.61;115458;1216;137192;-83
2021/10/24 00:06:29;;;;;;;0.10;0.10;;;;;;;6.65;50.94;99697.60;115449;1209;137259;-83
2021/10/24 00:08:55;;;;;;;0.00;0.00;;;;;;;6.61;51.29;99693.17;115473;1217;137423;-83
2021/10/24 00:11:20;;;;;;;0.00;0.00;;;;;;;6.59;50.98;99692.14;115434;1217;137339;-84
2021/10/24 00:13:46;;;;;;;0.00;0.00;;;;;;;6.56;50.72;99690.92;115568;1217;23063;-84
2021/10/24 00:16:11;;;;;;;0.00;0.00;;;;;;;6.53;50.98;99692.70;115465;1217;137024;-84
2021/10/24 00:18:37;;;;;;;0.00;0.00;;;;;;;6.51;51.07;99692.09;115449;1218;137247;-84
2021/10/24 00:21:03;;;;;;;0.10;0.10;;;;;;;6.48;51.09;99693.27;115389;1218;137471;-84
2021/10/24 00:23:29;;;;;;;0.00;0.00;;;;;;;6.45;51.29;99694.69;115401;1217;137281;-83
2021/10/24 00:25:55;;;;;;;0.10;0.10;;;;;;;6.41;51.58;99697.22;115598;1218;22290;-83
2021/10/24 00:28:21;;;;;;;0.00;0.00;;;;;;;6.37;51.84;99695.72;115371;1218;137198;-84
2021/10/24 00:30:47;;;;;;;0.00;0.00;;;;;;;6.33;51.77;99694.72;115454;1216;137210;-84
2021/10/24 00:33:12;;;;;;;0.10;0.10;;;;;;;6.30;52.09;99691.67;115384;1218;137370;-84
2021/10/24 00:35:39;;;;;;;0.00;0.00;;;;;;;6.26;51.74;99695.41;115403;1218;137677;-84
2021/10/24 00:38:05;;;;;;;0.00;0.00;;;;;;;6.21;52.05;99691.45;115582;1218;22315;-84
2021/10/24 00:40:31;;;;;;;0.00;0.00;;;;;;;6.15;52.16;99692.50;115450;1218;137522;-84
2021/10/24 00:42:56;;;;;;;0.10;0.10;;;;;;;6.09;52.38;99690.52;115364;1218;137798;-85
2021/10/24 00:45:24;;;;;;;0.00;0.00;;;;;;;6.03;52.29;99692.58;115434;1218;137210;-84
2021/10/24 00:47:50;;;;;;;0.00;0.00;;;;;;;5.98;53.14;99692.91;115451;1216;137338;-85
2021/10/24 00:50:16;;;;;;;0.10;0.10;;;;;;;5.91;53.20;99688.27;115353;1218;137290;-84
2021/10/24 00:52:42;;;;;;;0.00;0.00;;;;;;;5.85;53.55;99689.02;115574;1216;22287;-84
2021/10/24 00:55:10;;;;;;;0.00;0.00;;;;;;;5.80;53.50;99690.02;115453;1217;137068;-84
2021/10/24 00:57:35;;;;;;;0.00;0.00;;;;;;;5.76;53.47;99690.36;115468;1218;137132;-84
2021/10/24 01:00:11;;;;;;;0.10;0.10;;;;;;;5.73;53.64;99690.91;115392;1218;137135;-84
2021/10/24 01:07:07;;;;;;;0.10;0.10;;;;;;;5.63;53.76;99689.44;115551;1217;137191;-82
2021/10/24 01:10:36;;;;;;;0.10;0.10;;;;;;;5.58;53.77;99689.64;115550;1217;137187;-83
2021/10/24 01:13:57;;;;;;;0.00;0.00;;;;;;;5.52;54.16;99689.81;115455;1217;137353;-82
2021/10/24 01:17:23;;;;;;;;;;;;;;;;;;;;;
2021/10/24 01:20:52;;;;;;;0.00;0.00;;;;;;;5.46;53.77;99686.56;115556;1217;137356;-82
2021/10/24 01:24:42;;;;;;;0.00;0.00;;;;;;;5.45;54.13;99690.44;115547;1217;137193;-82
2021/10/24 01:37:18;;;;;;;0.00;0.00;;;;;;;5.34;54.71;99686.11;115515;1217;137178;-82
2021/10/24 01:40:51;;;;;;;0.00;0.00;;;;;;;5.31;54.84;99691.17;115530;1217;137199;-81
2021/10/24 01:54:28;;;;;;;0.10;0.10;;;;;;;5.14;55.51;99703.66;115528;1218;137341;-82
2021/10/24 01:58:05;;;;;;;0.00;0.00;;;;;;;5.12;55.28;99709.88;115435;1218;137330;-81
2021/10/24 02:01:38;;;;;;;0.10;0.10;;;;;;;5.10;55.03;99710.16;115469;1218;137168;-82
2021/10/24 02:08:32;;;;;;;0.10;0.10;;;;;;;5.08;55.34;99715.08;115522;1217;137029;-82
2021/10/24 02:18:59;;;;;;;0.00;0.00;;;;;;;5.02;55.43;99712.94;115552;1217;137282;-82
2021/10/24 02:29:30;;;;;;;0.00;0.00;;;;;;;4.91;55.53;99721.30;115524;1218;137079;-83
2021/10/24 02:32:58;;;;;;;0.00;0.00;;;;;;;4.87;55.71;99715.73;115486;1217;137284;-83
2021/10/24 02:36:36;;;;;;;0.00;0.00;;;;;;;4.83;55.82;99713.52;115475;1218;137293;-83
2021/10/24 02:43:31;;;;;;;0.00;0.00;;;;;;;4.73;56.35;99712.56;115449;1218;137233;-83
2021/10/24 02:47:04;;;;;;;0.00;0.00;;;;;;;4.67;56.31;99715.98;115476;1218;137620;-82
2021/10/24 02:50:36;;;;;;;0.00;0.00;;;;;;;4.62;56.70;99714.66;115344;1206;138034;-82
2021/10/24 02:57:05;;;;;;;0.00;0.00;;;;;;;4.53;56.62;99718.58;115658;1207;23006;-82
2021/10/24 03:00:33;;;;;;;0.00;0.00;;;;;;;4.50;56.92;99724.61;115592;1216;137127;-82
2021/10/24 03:04:05;;;;;;;0.00;0.00;;;;;;;4.46;57.35;99728.15;115586;1216;137374;-82
2021/10/24 03:07:32;;;;;;;0.00;0.00;;;;;;;4.42;57.75;99727.98;115479;1216;137175;-82
2021/10/24 03:11:05;;;;;;;0.00;0.00;;;;;;;4.41;57.53;99727.90;115557;1216;137323;-81
2021/10/24 03:14:52;;;;;;;0.00;0.00;;;;;;;4.41;57.65;99730.73;115491;1217;137373;-82
2021/10/24 03:18:01;;;;;;;0.00;0.00;;;;;;;4.40;57.49;99731.71;115666;1216;22310;-82
2021/10/24 03:21:25;;;;;;;0.00;0.00;;;;;;;4.40;57.65;99732.24;115564;1216;137518;-81
2021/10/24 03:25:00;;;;;;;0.00;0.00;;;;;;;4.39;57.81;99736.80;115520;1217;137360;-82
2021/10/24 03:31:58;;;;;;;0.00;0.00;;;;;;;4.37;57.94;99737.16;115565;1216;137134;-82
2021/10/24 03:35:26;;;;;;;0.00;0.00;;;;;;;4.35;57.95;99745.59;115483;1203;137302;-82
2021/10/24 03:38:59;;;;;;;0.10;0.10;;;;;;;4.33;58.11;99746.51;115552;1216;137166;-82
2021/10/24 03:42:17;;;;;;;;;;;;;;;4.30;58.00;99749.05;115475;1217;137361;-83
2021/10/24 03:45:43;;;;;;;0.00;0.00;;;;;;;4.27;58.36;99754.73;115518;1217;123745;-83
2021/10/24 03:49:19;;;;;;;;;;;;;;;;;;;;;
2021/10/24 03:52:43;;;;;;;0.00;0.00;;;;;;;4.18;58.45;99749.00;115400;1217;137173;-82
2021/10/24 03:59:40;;;;;;;;;;;;;;;;;;;;;
2021/10/24 04:06:34;;;;;;;;;;;;;;;;;;;;;
2021/10/24 04:09:50;;;;;;;0.00;0.00;;;;;;;4.04;58.90;99760.19;115486;1217;137325;-82
2021/10/24 04:20:18;;;;;;;0.00;0.00;;;;;;;4.16;59.26;99757.64;115559;1216;137840;-82
2021/10/24 04:24:07;;;;;;;0.00;0.00;;;;;;;4.28;59.65;99760.42;115462;1216;137973;-82
2021/10/24 04:27:09;;;;;;;0.00;0.00;;;;;;;4.39;59.55;99760.55;115536;1216;137339;-81
2021/10/24 04:30:35;;;;;;;0.00;0.00;;;;;;;4.46;59.34;99763.78;115561;1216;137344;-81
2021/10/24 04:34:10;;;;;;;0.00;0.00;;;;;;;4.51;59.12;99761.46;115568;1216;137261;-81
2021/10/24 04:37:34;;;;;;;0.00;0.00;;;;;;;4.52;59.18;99764.07;115432;1216;137323;-82
2021/10/24 04:41:00;;;;;;;0.00;0.00;;;;;;;4.53;59.17;99767.71;115562;1216;137354;-82
2021/10/24 04:44:26;;;;;;;0.00;0.00;;;;;;;4.51;59.27;99767.77;115525;1216;137395;-82
2021/10/24 04:47:47;;;;;;;0.00;0.00;;;;;;;4.48;59.44;99771.02;115549;1216;137677;-81
2021/10/24 04:54:43;;;;;;;0.00;0.00;;;;;;;4.36;59.23;99778.81;115475;1216;137411;-81
2021/10/24 04:58:09;;;;;;;0.00;0.00;;;;;;;4.30;59.29;99778.06;115560;1216;137902;-82
2021/10/24 05:01:35;;;;;;;0.10;0.10;;;;;;;4.26;59.46;99775.08;115534;1216;137295;-82
2021/10/24 05:05:01;;;;;;;0.00;0.00;;;;;;;4.17;59.67;99775.42;115565;1216;137289;-81
2021/10/24 05:08:27;;;;;;;0.00;0.00;;;;;;;4.10;59.66;99772.55;115566;1216;137254;-81
2021/10/24 05:12:01;;;;;;;0.00;0.00;;;;;;;4.05;59.63;99771.86;115530;1216;137225;-82
2021/10/24 05:15:47;;;;;;;0.00;0.00;;;;;;;4.01;59.87;99776.17;115467;1216;137409;-81
2021/10/24 05:19:01;;;;;;;0.00;0.00;;;;;;;3.96;59.79;99774.20;115515;1216;137365;-81
2021/10/24 05:22:27;;;;;;;0.00;0.00;;;;;;;3.91;60.02;99778.50;115507;1216;137163;-81
2021/10/24 05:25:54;;;;;;;0.00;0.00;;;;;;;3.85;60.40;99782.58;115522;1216;137173;-81
2021/10/24 05:29:20;;;;;;;0.00;0.00;;;;;;;3.81;60.28;99792.77;115584;1216;137546;-81
2021/10/24 05:32:48;;;;;;;0.00;0.00;;;;;;;3.79;60.24;99797.40;115587;1216;136947;-82
2021/10/24 05:36:15;;;;;;;0.00;0.00;;;;;;;3.77;60.45;99806.24;115540;1216;137013;-82
2021/10/24 05:50:07;;;;;;;0.00;0.00;;;;;;;3.75;61.09;99823.77;115526;1209;137289;-82
2021/10/24 05:53:40;;;;;;;0.00;0.00;;;;;;;3.76;60.94;99830.10;115566;1216;136985;-81
2021/10/24 05:57:07;;;;;;;0.00;0.00;;;;;;;3.76;61.09;99836.38;115477;1216;137347;-82
2021/10/24 06:00:33;;;;;;;0.00;0.00;;;;;;;3.76;61.36;99836.00;115563;1216;137761;-84
2021/10/24 06:07:32;;;;;;;;;;;;;;;;;;;;;
2021/10/24 06:11:34;;;;;;;0.10;0.10;;;;;;;3.91;61.03;99848.67;115514;1216;136762;-82
2021/10/24 06:14:35;;;;;;;0.00;0.00;;;;;;;4.07;61.47;99849.61;115485;1216;138450;-82
2021/10/24 06:25:00;;;;;;;0.00;0.00;;;;;;;4.53;61.18;99867.30;115519;1216;137414;-82
2021/10/24 06:28:26;;;;;;;0.00;0.00;;;;;;;4.64;61.22;99876.08;115604;1217;137322;-82
2021/10/24 06:39:13;;;;;;;;;;;;;;;;;;;;;
2021/10/24 06:42:29;;;;;;;0.10;0.10;;;;;;;5.01;60.65;99900.36;115307;1217;137591;-82
2021/10/24 06:46:07;;;;;;;0.00;0.00;;;;;;;5.11;60.38;99900.73;115519;1217;137407;-82
2021/10/24 06:53:08;;;;;;;0.00;0.00;;;;;;;5.41;59.76;99910.69;115466;1217;137210;-84
2021/10/24 06:59:33;;;;;;;0.10;0.10;;;;;;;5.71;59.24;99916.17;115525;1206;138187;-84
2021/10/24 07:06:47;;;;;;;0.20;0.20;;;;;;;6.06;58.68;99917.75;115546;1206;136427;-84
2021/10/24 07:10:32;;;;;;;;;;;;;;;;;;;;;
2021/10/24 07:20:56;;;;;;;0.00;0.00;;;;;;;6.71;57.55;99917.73;115510;1217;137095;-80
2021/10/24 07:27:50;;;;;;;0.10;0.10;;;;;;;6.93;57.13;99926.25;115524;1217;137339;-79
2021/10/24 07:31:14;;;;;;;0.10;0.10;;;;;;;7.07;56.92;99934.73;115533;1216;137374;-79
2021/10/24 07:34:47;;;;;;;0.10;0.10;;;;;;;7.22;56.78;99940.94;115509;1216;137094;-80
2021/10/24 07:45:17;;;;;;;0.10;0.10;;;;;;;7.65;56.24;99951.86;115499;1217;136978;-80
2021/10/24 07:48:45;;;;;;;0.10;0.10;;;;;;;7.81;55.52;99951.98;115495;1217;137506;-80
2021/10/24 07:52:12;;;;;;;0.10;0.10;;;;;;;7.98;55.22;99959.71;115403;1217;137322;-81
2021/10/24 07:59:01;;;;;;;0.10;0.10;;;;;;;8.35;54.93;99959.00;115439;1217;137254;-80
2021/10/24 08:02:28;;;;;;;0.10;0.10;;;;;;;8.53;54.31;99960.52;115488;1217;137314;-80
2021/10/24 08:05:55;;;;;;;0.10;0.10;;;;;;;8.73;53.90;99961.04;115634;1217;23068;-80
2021/10/24 08:30:07;;;;;;;0.00;0.00;;;;;;;10.08;51.00;99972.71;115505;1217;137197;-80
2021/10/24 08:33:35;;;;;;;0.10;0.10;;;;;;;10.26;50.58;99972.92;115435;1217;137811;-79
2021/10/24 08:37:25;;;;;;;0.10;0.10;;;;;;;10.43;49.51;99972.35;115542;1217;137593;-81
2021/10/24 08:44:06;;;;;;;0.10;0.10;;;;;;;10.79;48.89;99975.63;115557;1217;137491;-82
2021/10/24 08:47:38;;;;;;;0.10;0.10;;;;;;;11.09;48.26;99978.12;115563;1215;137416;-81
2021/10/24 08:51:07;;;;;;;0.20;0.20;;;;;;;11.33;46.88;99975.84;115438;1217;137402;-81
2021/10/24 08:54:35;;;;;;;0.10;0.10;;;;;;;11.50;45.45;99971.95;115551;1217;137724;-81
2021/10/24 08:58:03;;;;;;;0.10;0.10;;;;;;;11.67;45.05;99972.96;115560;1217;137543;-81
2021/10/24 09:01:27;;;;;;;0.10;0.10;;;;;;;11.89;43.60;99986.38;115449;1193;138005;-81
2021/10/24 09:15:50;;;;;;;0.10;0.10;;;;;;;12.67;40.68;99971.31;115523;1216;137837;-81
2021/10/24 09:22:59;;;;;;;0.10;0.10;;;;;;;13.02;40.17;99982.23;115516;1217;137580;-80
2021/10/24 09:26:31;;;;;;;0.20;0.20;;;;;;;13.24;38.71;99979.42;115551;1217;137798;-81
2021/10/24 09:33:50;;;;;;;0.20;0.20;;;;;;;13.51;38.08;99979.02;115551;1217;138208;-81
2021/10/24 09:37:08;;;;;;;0.10;0.10;;;;;;;13.72;37.95;99974.81;115527;1217;137889;-81
2021/10/24 09:40:46;;;;;;;0.20;0.20;;;;;;;13.91;37.77;99983.16;115499;1217;137734;-80
2021/10/24 09:44:09;;;;;;;0.20;0.20;;;;;;;14.05;37.23;99989.19;115541;1217;136551;-80
2021/10/24 09:47:25;;;;;;;0.20;0.20;;;;;;;14.10;35.58;99987.71;115466;1217;137364;-82
2021/10/24 09:50:51;;;;;;;0.20;0.20;;;;;;;14.19;36.37;99993.27;115528;1216;137452;-82
2021/10/24 09:54:18;;;;;;;0.30;0.30;;;;;;;14.29;35.41;99990.86;115532;1216;138066;-80
2021/10/24 09:57:45;;;;;;;0.20;0.20;;;;;;;14.43;36.39;99984.14;115467;1217;137986;-81
2021/10/24 10:08:06;;;;;;;0.20;0.20;;;;;;;14.74;34.86;99988.43;115520;1217;137491;-81
2021/10/24 10:11:32;;;;;;;0.30;0.30;;;;;;;14.78;34.64;99987.63;115447;1217;137399;-82
2021/10/24 10:15:11;;;;;;;0.20;0.20;;;;;;;14.88;35.09;99981.86;115555;1217;137436;-81
2021/10/24 10:22:18;;;;;;;;;;;;;;;;;;;;;
2021/10/24 10:25:47;;;;;;;0.20;0.20;;;;;;;15.41;32.71;99974.52;115491;1217;137580;-81
2021/10/24 10:32:52;;;;;;;0.10;0.10;;;;;;;15.69;33.03;99965.80;115477;1217;137660;-82
2021/10/24 10:39:51;;;;;;;0.20;0.20;;;;;;;16.22;32.28;99969.77;115439;1206;137824;-82
2021/10/24 11:02:59;;;;;;;0.40;0.40;;;;;;;16.95;30.04;99961.21;115526;1206;137798;-80
2021/10/24 11:10:19;;;;;;;0.20;0.20;;;;;;;17.23;29.30;99962.73;115197;1218;137954;-82
2021/10/24 11:13:44;;;;;;;0.30;0.30;;;;;;;17.28;28.55;99962.53;115579;1217;137683;-82
2021/10/24 11:20:37;;;;;;;0.30;0.30;;;;;;;17.70;28.98;99963.95;115564;1217;137902;-81
2021/10/24 11:24:04;;;;;;;0.20;0.20;;;;;;;18.04;27.95;99957.73;115588;1216;139169;-83
2021/10/24 11:27:36;;;;;;;0.30;0.30;;;;;;;18.18;27.18;99952.66;115537;1202;137733;-80
2021/10/24 11:30:55;;;;;;;;;;;;;;;18.42;27.01;99958.16;115509;1217;137570;-82
2021/10/24 11:34:30;;;;;;;0.30;0.30;;;;;;;18.57;26.92;99960.64;115483;1217;124048;-82
2021/10/24 11:37:54;;;;;;;0.30;0.30;;;;;;;18.66;26.93;99956.36;115556;1217;137491;-82
2021/10/24 11:41:20;;;;;;;0.30;0.30;;;;;;;18.63;26.44;99948.98;115557;1217;137617;-83
2021/10/24 11:44:52;;;;;;;0.20;0.20;;;;;;;18.71;27.19;99950.20;115423;1218;137702;-82
2021/10/24 11:48:21;;;;;;;0.20;0.20;;;;;;;18.99;26.94;99946.76;115344;1217;137819;-83
2021/10/24 11:52:00;;;;;;;0.30;0.30;;;;;;;19.08;26.45;99946.38;115463;1217;137661;-85
2021/10/24 12:02:51;;;;;;;0.40;0.40;;;;;;;19.23;26.47;99937.16;115295;1222;136468;-82
2021/10/24 12:06:23;;;;;;;0.40;0.40;;;;;;;19.41;26.16;99932.16;115268;1222;137565;-82
2021/10/24 12:19:27;;;;;;;0.30;0.30;;;;;;;20.10;24.31;99924.98;115555;1216;137593;-83
2021/10/24 12:22:55;;;;;;;0.30;0.30;;;;;;;20.31;23.86;99923.64;115514;1216;139783;-82
2021/10/24 12:26:49;;;;;;;;;;;;;;;;;;;;;
2021/10/24 12:30:07;;;;;;;0.40;0.40;;;;;;;20.60;23.47;99920.46;115461;1217;137592;-78
2021/10/24 12:33:40;;;;;;;0.30;0.30;;;;;;;20.78;23.62;99923.80;115549;1217;137785;-81
2021/10/24 12:44:18;;;;;;;0.40;0.40;;;;;;;21.43;22.77;99913.19;115539;1217;137637;-82
2021/10/24 12:47:52;;;;;;;0.30;0.30;;;;;;;21.36;22.67;99907.34;115497;1218;137549;-85
2021/10/24 12:51:19;;;;;;;0.40;0.40;;;;;;;21.26;22.25;99906.13;115505;1218;137493;-80
2021/10/24 12:54:53;;;;;;;0.30;0.30;;;;;;;21.57;22.17;99899.27;115531;1218;137749;-81
2021/10/24 12:58:42;;;;;;;0.40;0.40;;;;;;;21.99;21.35;99898.95;115412;1218;137596;-80
2021/10/24 13:02:04;;;;;;;0.30;0.30;;;;;;;22.18;21.14;99899.98;115456;1218;137617;-80
2021/10/24 13:05:31;;;;;;;0.50;0.50;;;;;;;22.38;21.10;99904.77;115520;1218;137341;-81
2021/10/24 13:15:58;;;;;;;0.50;0.50;;;;;;;22.83;20.62;99899.61;115523;1217;138130;-81
2021/10/24 13:26:20;;;;;;;0.40;0.40;;;;;;;23.57;19.47;99895.40;115515;1211;137594;-86
2021/10/24 13:29:48;;;;;;;0.50;0.50;;;;;;;23.64;19.22;99890.20;115505;1217;22407;-81
2021/10/24 13:33:16;;;;;;;0.40;0.40;;;;;;;23.93;19.26;99891.32;115545;1217;137426;-81
2021/10/24 13:36:43;;;;;;;0.40;0.40;;;;;;;24.19;18.83;99885.01;115542;1217;137736;-82
2021/10/24 13:40:10;;;;;;;0.50;0.50;;;;;;;24.36;18.79;99879.59;115511;1217;137580;-82
2021/10/24 13:43:37;;;;;;;0.50;0.50;;;;;;;24.57;18.39;99885.09;115524;1217;136585;-81
2021/10/24 13:47:09;;;;;;;0.60;0.60;;;;;;;24.83;17.81;99883.52;115531;1217;137462;-80
2021/10/24 13:50:36;;;;;;;0.50;0.50;;;;;;;25.29;17.33;99880.79;115440;1217;137724;-80
2021/10/24 13:54:02;;;;;;;0.70;0.70;;;;;;;25.70;17.19;99878.91;115641;1217;22951;-80
2021/10/24 13:57:30;;;;;;;0.60;0.60;;;;;;;26.32;16.87;99878.66;115547;1217;137327;-81
2021/10/24 14:04:29;;;;;;;0.70;0.70;;;;;;;26.75;15.71;99877.44;115478;1217;137721;-82
2021/10/24 14:08:04;;;;;;;;;;;;;;;;;;;;;
2021/10/24 14:11:20;;;;;;;0.80;0.80;;;;;;;27.34;14.83;99871.04;115540;1217;137709;-86
2021/10/24 14:21:38;;;;;;;;;;;;;;;;;;;;;
2021/10/24 14:25:06;;;;;;;0.90;0.90;;;;;;;29.54;13.05;99856.02;115471;1218;137893;-79
2021/10/24 14:28:34;;;;;;;0.80;0.80;;;;;;;30.21;12.64;99850.58;115375;1218;137557;-79
2021/10/24 14:32:01;;;;;;;1.00;1.00;;;;;;;30.89;12.07;99852.72;115471;1218;137616;-79
2021/10/24 14:35:27;;;;;;;1.00;1.00;;;;;;;31.69;11.55;99856.23;115453;1217;137997;-79
2021/10/24 14:38:53;;;;;;;1.00;1.00;;;;;;;32.44;10.77;99847.59;115485;1203;137495;-78
2021/10/24 14:42:20;;;;;;;1.10;1.10;;;;;;;33.20;10.12;99839.23;115443;1217;137504;-78
2021/10/24 14:45:47;;;;;;;1.00;1.00;;;;;;;33.55;9.57;99843.63;115543;1217;137774;-78
2021/10/24 14:56:05;;;;;;;1.00;1.00;;;;;;;34.12;9.27;99849.86;115415;1217;137490;-78
2021/10/24 15:09:50;;;;;;;1.00;1.00;;;;;;;33.13;9.66;99840.86;115477;1217;137509;-79
2021/10/24 15:13:16;;;;;;;1.00;1.00;;;;;;;32.63;10.20;99839.18;115489;1217;137346;-79
2021/10/24 15:23:50;;;;;;;0.90;0.90;;;;;;;30.74;11.45;99836.08;115437;1217;138324;-78
2021/10/24 15:27:18;;;;;;;0.70;0.70;;;;;;;29.75;11.94;99829.13;115503;1217;137731;-79
2021/10/24 15:30:45;;;;;;;0.70;0.70;;;;;;;28.58;13.11;99822.92;115529;1217;137676;-81
2021/10/24 15:34:12;;;;;;;0.70;0.70;;;;;;;27.30;15.00;99826.42;115506;1217;137673;-79
2021/10/24 15:37:39;;;;;;;0.50;0.50;;;;;;;26.05;16.09;99821.04;115406;1217;137504;-79
2021/10/24 15:44:37;;;;;;;0.40;0.40;;;;;;;22.80;18.86;99813.29;115529;1217;136330;-81
2021/10/24 15:48:06;;;;;;;0.30;0.30;;;;;;;21.50;19.97;99814.14;115406;1217;137453;-80
2021/10/24 15:51:41;;;;;;;0.30;0.30;;;;;;;20.15;21.44;99818.79;115471;1217;137827;-80
2021/10/24 15:55:05;;;;;;;0.10;0.10;;;;;;;19.06;22.53;99821.02;115418;1217;137515;-80
2021/10/24 15:58:33;;;;;;;0.40;0.40;;;;;;;18.23;23.34;99822.51;115568;1217;137791;-82
2021/10/24 16:02:04;;;;;;;0.20;0.20;;;;;;;17.45;24.42;99824.00;115547;1217;137527;-82
2021/10/24 16:05:31;;;;;;;0.30;0.30;;;;;;;16.71;25.39;99818.23;115507;1217;137459;-82
2021/10/24 16:09:05;;;;;;;0.30;0.30;;;;;;;15.94;26.32;99826.36;115570;1217;137549;-81
2021/10/24 16:12:21;;;;;;;;;;;;;;;;;;;;;
2021/10/24 16:19:22;;;;;;;0.20;0.20;;;;;;;14.36;28.71;99826.21;115531;1217;137517;-80
2021/10/24 16:26:16;;;;;;;0.20;0.20;;;;;;;13.54;30.00;99819.73;115487;1217;137971;-82
2021/10/24 16:36:19;;;;;;;0.20;0.20;;;;;;;12.58;31.77;99819.89;115560;1206;138190;-84
2021/10/24 16:45:10;;;;;;;0.20;0.20;;;;;;;11.92;32.93;99829.43;115648;1209;23072;-80
2021/10/24 16:48:29;;;;;;;0.10;0.10;;;;;;;11.66;33.84;99828.30;115593;1217;137167;-81
2021/10/24 16:51:55;;;;;;;0.10;0.10;;;;;;;11.43;34.77;99831.95;115534;1217;137770;-80
2021/10/24 16:55:22;;;;;;;0.20;0.20;;;;;;;11.21;34.78;99834.92;115514;1217;137946;-81
2021/10/24 16:58:50;;;;;;;0.10;0.10;;;;;;;11.02;35.46;99840.67;115485;1217;137564;-80
2021/10/24 17:02:16;;;;;;;0.10;0.10;;;;;;;10.84;35.79;99837.02;115523;1216;137560;-80
2021/10/24 17:16:07;;;;;;;0.00;0.00;;;;;;;10.21;37.20;99839.98;115523;1216;137751;-80
2021/10/24 17:29:34;;;;;;;0.10;0.10;;;;;;;9.80;38.32;99828.40;114449;1206;138321;-80
2021/10/24 17:33:02;;;;;;;0.00;0.00;;;;;;;9.71;38.63;99830.66;115534;1216;22162;-81
2021/10/24 17:36:50;;;;;;;0.10;0.10;;;;;;;9.62;39.10;99826.61;115528;1217;137632;-81
2021/10/24 17:39:59;;;;;;;0.10;0.10;;;;;;;9.55;38.79;99830.91;115483;1217;138021;-81
2021/10/24 17:43:25;;;;;;;0.10;0.10;;;;;;;9.46;39.10;99829.76;115492;1217;137256;-80
2021/10/24 17:50:18;;;;;;;0.10;0.10;;;;;;;9.33;39.41;99825.38;115542;1217;137179;-81
2021/10/24 17:53:51;;;;;;;0.00;0.00;;;;;;;9.27;39.06;99823.31;115478;1217;136954;-81
2021/10/24 18:00:44;;;;;;;0.00;0.00;;;;;;;9.13;40.31;99826.77;115537;1217;137814;-80
2021/10/24 18:04:03;;;;;;;;;;;;;;;;;;;;;
2021/10/24 18:07:33;;;;;;;0.10;0.10;;;;;;;9.01;40.74;99821.41;115532;1216;137300;-79
2021/10/24 18:14:26;;;;;;;0.10;0.10;;;;;;;8.91;41.08;99813.73;115527;1216;137275;-80
2021/10/24 18:17:52;;;;;;;0.10;0.10;;;;;;;8.85;41.05;99814.41;115524;1217;137406;-80
2021/10/24 18:21:26;;;;;;;0.10;0.10;;;;;;;8.79;41.38;99815.56;115431;1217;137132;-79
2021/10/24 18:24:51;;;;;;;0.10;0.10;;;;;;;8.73;41.52;99807.26;115410;1217;137366;-82
2021/10/24 18:28:23;;;;;;;0.10;0.10;;;;;;;8.68;41.79;99814.16;115465;1217;137188;-80
2021/10/24 18:31:49;;;;;;;0.00;0.00;;;;;;;8.63;42.00;99812.42;115458;1217;137422;-80
2021/10/24 18:42:09;;;;;;;0.10;0.10;;;;;;;8.49;42.27;99807.78;115484;1217;136972;-81
2021/10/24 18:55:56;;;;;;;0.00;0.00;;;;;;;8.32;42.88;99810.11;115521;1217;137359;-81
2021/10/24 18:59:22;;;;;;;0.10;0.10;;;;;;;8.29;43.19;99807.27;115549;1217;137505;-80
2021/10/24 19:02:51;;;;;;;0.00;0.00;;;;;;;8.27;43.18;99813.91;115496;1217;137147;-81
2021/10/24 19:06:24;;;;;;;0.10;0.10;;;;;;;8.27;43.03;99811.91;115428;1217;137552;-81
2021/10/24 19:09:59;;;;;;;0.00;0.00;;;;;;;8.29;43.22;99818.46;115482;1217;137890;-81
2021/10/24 19:13:34;;;;;;;0.00;0.00;;;;;;;8.29;43.26;99819.28;115503;1217;137148;-80
2021/10/24 19:20:34;;;;;;;0.00;0.00;;;;;;;8.30;43.20;99817.10;115463;1217;137243;-81
2021/10/24 19:24:03;;;;;;;0.00;0.00;;;;;;;8.31;43.36;99816.08;115510;1217;137553;-80
2021/10/24 19:31:12;;;;;;;0.10;0.10;;;;;;;8.30;43.48;99809.54;115500;1216;137536;-82
2021/10/24 19:34:39;;;;;;;0.10;0.10;;;;;;;8.29;43.43;99805.00;115211;1222;137792;-81
2021/10/24 19:38:07;;;;;;;0.10;0.10;;;;;;;8.28;44.55;99806.92;115172;1222;137384;-82
2021/10/24 19:41:33;;;;;;;0.00;0.00;;;;;;;8.29;44.19;99805.76;115181;1214;137743;-83
2021/10/24 19:45:00;;;;;;;0.00;0.00;;;;;;;8.27;44.77;99809.13;115620;1217;22295;-83
2021/10/24 19:48:29;;;;;;;0.10;0.10;;;;;;;8.24;44.32;99811.73;115509;1217;137143;-81
2021/10/24 19:51:55;;;;;;;0.00;0.00;;;;;;;8.21;44.15;99809.46;115534;1217;137257;-81
2021/10/24 19:58:49;;;;;;;0.00;0.00;;;;;;;8.12;45.44;99817.56;115511;1217;137138;-81
2021/10/24 20:02:18;;;;;;;0.10;0.10;;;;;;;8.08;45.28;99822.52;115539;1217;137254;-81
2021/10/24 20:09:11;;;;;;;0.10;0.10;;;;;;;8.00;45.09;99813.98;115587;1217;23180;-81
2021/10/24 20:12:50;;;;;;;0.00;0.00;;;;;;;7.98;45.48;99818.80;115479;1217;137526;-81
2021/10/24 20:16:17;;;;;;;0.00;0.00;;;;;;;7.96;45.08;99809.27;115487;1216;137144;-80
2021/10/24 20:19:42;;;;;;;0.10;0.10;;;;;;;7.95;44.84;99811.58;115517;1217;137189;-80
2021/10/24 20:26:45;;;;;;;0.00;0.00;;;;;;;7.95;44.83;99811.52;115502;1217;136946;-81
2021/10/24 20:30:23;;;;;;;;;;;;;;;;;;;;;
2021/10/24 20:33:39;;;;;;;0.10;0.10;;;;;;;7.94;44.98;99812.15;115512;1217;136247;-80
2021/10/24 20:37:06;;;;;;;0.00;0.00;;;;;;;7.94;45.23;99814.56;115534;1216;137187;-81
2021/10/24 20:40:33;;;;;;;0.00;0.00;;;;;;;7.93;44.83;99810.86;115521;1217;137152;-80
2021/10/24 20:44:01;;;;;;;0.10;0.10;;;;;;;7.93;45.27;99816.38;115513;1216;137164;-80
2021/10/24 20:47:30;;;;;;;0.10;0.10;;;;;;;7.93;45.12;99819.92;115533;1218;137125;-81
2021/10/24 20:50:55;;;;;;;0.10;0.10;;;;;;;7.93;44.92;99816.21;115489;1216;137245;-81
2021/10/24 20:54:21;;;;;;;0.10;0.10;;;;;;;7.93;45.36;99813.59;115467;1217;137455;-82
2021/10/24 20:57:53;;;;;;;0.10;0.10;;;;;;;7.92;45.02;99813.97;115542;1217;137338;-81
2021/10/24 21:01:21;;;;;;;0.10;0.10;;;;;;;7.90;45.43;99812.13;115394;1217;137315;-80
2021/10/24 21:04:48;;;;;;;0.00;0.00;;;;;;;7.87;45.53;99813.13;115457;1217;137356;-80
2021/10/24 21:08:09;;;;;;;0.10;0.10;;;;;;;7.81;45.84;99808.90;115503;1217;137283;-80
2021/10/24 21:11:35;;;;;;;0.00;0.00;;;;;;;7.79;45.57;99806.36;115536;1218;137351;-80
2021/10/24 21:21:58;;;;;;;0.00;0.00;;;;;;;7.75;46.36;99807.89;115530;1217;137355;-81
2021/10/24 21:25:25;;;;;;;0.00;0.00;;;;;;;7.74;46.14;99805.55;115529;1216;137367;-80
2021/10/24 21:32:27;;;;;;;0.00;0.00;;;;;;;7.73;46.40;99805.55;115527;1217;137261;-81
2021/10/24 21:39:35;;;;;;;;;;;;;;;;;;;;;
2021/10/24 21:46:29;;;;;;;0.10;0.10;;;;;;;7.69;46.64;99804.55;115568;1217;137195;-80
2021/10/24 21:50:02;;;;;;;0.10;0.10;;;;;;;7.66;46.39;99803.50;115545;1217;137402;-80
2021/10/24 21:53:31;;;;;;;0.00;0.00;;;;;;;7.65;46.42;99799.31;115468;1216;137262;-81
2021/10/24 21:56:59;;;;;;;0.00;0.00;;;;;;;7.63;46.44;99797.23;115567;1217;137115;-81
2021/10/24 22:00:26;;;;;;;0.00;0.00;;;;;;;7.62;46.66;99796.45;115550;1216;136194;-81
2021/10/24 22:03:58;;;;;;;0.00;0.00;;;;;;;7.63;45.87;99800.11;115560;1216;137364;-81
2021/10/24 22:10:41;;;;;;;0.00;0.00;;;;;;;7.60;46.50;99805.49;115479;1217;123655;-82
2021/10/24 22:14:07;;;;;;;0.10;0.10;;;;;;;7.56;47.22;99804.33;115529;1217;137182;-81
2021/10/24 22:17:34;;;;;;;0.00;0.00;;;;;;;7.49;47.58;99805.44;115475;1217;137216;-80
2021/10/24 22:21:06;;;;;;;0.00;0.00;;;;;;;7.41;47.59;99797.54;115551;1217;137005;-82
2021/10/24 22:24:36;;;;;;;0.10;0.10;;;;;;;7.35;47.24;99798.02;115395;1216;137665;-82
2021/10/24 22:28:03;;;;;;;0.10;0.00;;;;;;;7.29;47.39;99796.95;115506;1217;137223;-82
2021/10/24 22:31:46;;;;;;;0.00;0.00;;;;;;;7.26;47.34;99796.63;115473;1209;137228;-81
2021/10/24 22:35:22;;;;;;;0.00;0.00;;;;;;;7.22;47.81;99796.86;115537;1217;137309;-82
2021/10/24 22:38:48;;;;;;;0.10;0.10;;;;;;;7.17;47.71;99795.59;115477;1217;137284;-81
2021/10/24 22:42:17;;;;;;;0.00;0.00;;;;;;;7.15;47.64;99798.29;115643;1217;23051;-82